Time;durP1;ratioP1;P1;durP2;ratioP2;P2;SDS_P1;SDS_P2;PMS_P1;PMS_P2;Temp;Humidity;BMP_temperature;BMP_pressure;BME280_temperature;BME280_humidity;BME280_pressure;Samples;Min_cycle;Max_cycle;Signal;HPM_P1;HPM_P2
2022/08/14 00:01:37;;;;;;;0.00;0.00;;;;;;;;;;12275456;19;19994;-64
2022/08/14 00:05:38;;;;;;;0.00;0.00;;;;;;;;;;12275038;19;19987;-64
2022/08/14 00:09:38;;;;;;;0.00;0.00;;;;;;;;;;12275529;19;20203;-64
2022/08/14 00:13:39;;;;;;;0.00;0.00;;;;;;;;;;12276315;19;20187;-64
2022/08/14 00:17:39;;;;;;;0.00;0.00;;;;;;;;;;12276240;19;20115;-64
2022/08/14 00:21:40;;;;;;;0.00;0.00;;;;;;;;;;12275625;19;19987;-65
2022/08/14 00:25:42;;;;;;;0.00;0.00;;;;;;;;;;12271760;19;20010;-65
2022/08/14 00:29:43;;;;;;;0.00;0.00;;;;;;;;;;12273309;19;19987;-64
2022/08/14 00:33:44;;;;;;;0.00;0.00;;;;;;;;;;12273678;19;19978;-65
2022/08/14 00:37:45;;;;;;;0.00;0.00;;;;;;;;;;12273973;19;20011;-64
2022/08/14 00:41:47;;;;;;;0.00;0.00;;;;;;;;;;12272685;19;19982;-63
2022/08/14 00:45:47;;;;;;;0.00;0.00;;;;;;;;;;12270795;19;20162;-64
2022/08/14 00:49:49;;;;;;;0.00;0.00;;;;;;;;;;12272063;19;19983;-64
2022/08/14 00:53:50;;;;;;;0.00;0.00;;;;;;;;;;12272461;19;19990;-64
2022/08/14 00:58:29;;;;;;;0.00;0.00;;;;;;;;;;12272222;19;19983;-64
2022/08/14 01:02:14;;;;;;;0.00;0.00;;;;;;;;;;12271771;19;20208;-65
2022/08/14 01:06:15;;;;;;;0.00;0.00;;;;;;;;;;12271925;19;19986;-66
2022/08/14 01:10:17;;;;;;;0.00;0.00;;;;;;;;;;12270699;19;20195;-63
2022/08/14 01:14:18;;;;;;;0.00;0.00;;;;;;;;;;12271457;19;20059;-64
2022/08/14 01:22:39;;;;;;;0.00;0.00;;;;;;;;;;12271530;19;20244;-63
2022/08/14 01:26:41;;;;;;;0.00;0.00;;;;;;;;;;12268135;19;19991;-64
2022/08/14 01:30:42;;;;;;;0.00;0.00;;;;;;;;;;12270174;19;19983;-63
2022/08/14 01:34:42;;;;;;;0.00;0.00;;;;;;;;;;12270352;19;20011;-65
2022/08/14 01:38:47;;;;;;;0.00;0.00;;;;;;;;;;12269237;19;20017;-65
2022/08/14 01:42:48;;;;;;;0.00;0.00;;;;;;;;;;12270071;19;19987;-65
2022/08/14 01:46:53;;;;;;;0.00;0.00;;;;;;;;;;12266544;19;19982;-65
2022/08/14 01:50:54;;;;;;;0.00;0.00;;;;;;;;;;12268267;19;19993;-65
2022/08/14 01:54:54;;;;;;;0.00;0.00;;;;;;;;;;12270373;19;19994;-65
2022/08/14 01:58:55;;;;;;;0.00;0.00;;;;;;;;;;12269166;19;19987;-65
2022/08/14 02:02:57;;;;;;;0.00;0.00;;;;;;;;;;12268845;19;19991;-64
2022/08/14 02:06:58;;;;;;;0.00;0.00;;;;;;;;;;12269600;19;20006;-65
2022/08/14 02:15:20;;;;;;;0.00;0.00;;;;;;;;;;12268827;19;20051;-65
2022/08/14 02:19:25;;;;;;;0.00;0.00;;;;;;;;;;12268712;19;19979;-65
2022/08/14 02:23:26;;;;;;;0.00;0.00;;;;;;;;;;12268265;19;20010;-64
2022/08/14 02:27:28;;;;;;;0.00;0.00;;;;;;;;;;12268277;19;19991;-64
2022/08/14 02:31:31;;;;;;;0.00;0.00;;;;;;;;;;12265991;19;19998;-64
2022/08/14 02:35:32;;;;;;;0.00;0.00;;;;;;;;;;12267973;19;20216;-64
2022/08/14 02:39:36;;;;;;;0.00;0.00;;;;;;;;;;12267697;19;19997;-64
2022/08/14 02:43:38;;;;;;;0.00;0.00;;;;;;;;;;12266851;19;20012;-64
2022/08/14 02:47:38;;;;;;;0.00;0.00;;;;;;;;;;12268606;19;19991;-66
2022/08/14 02:51:40;;;;;;;0.00;0.00;;;;;;;;;;12276680;19;19987;-65
2022/08/14 02:55:42;;;;;;;0.00;0.00;;;;;;;;;;12279053;19;19983;-64
2022/08/14 02:59:43;;;;;;;0.00;0.00;;;;;;;;;;12278956;19;19986;-64
2022/08/14 03:03:47;;;;;;;0.00;0.00;;;;;;;;;;12278537;19;19998;-63
2022/08/14 03:07:47;;;;;;;0.00;0.00;;;;;;;;;;12279174;19;19990;-64
2022/08/14 03:11:48;;;;;;;0.00;0.00;;;;;;;;;;12275268;19;19987;-64
2022/08/14 03:15:52;;;;;;;0.00;0.00;;;;;;;;;;12278167;19;20183;-65
2022/08/14 03:19:52;;;;;;;0.00;0.00;;;;;;;;;;12277545;19;20195;-65
2022/08/14 03:24:11;;;;;;;0.00;0.00;;;;;;;;;;12276413;19;20215;-65
2022/08/14 03:28:13;;;;;;;0.00;0.00;;;;;;;;;;12277875;19;19991;-65
2022/08/14 03:32:13;;;;;;;0.00;0.00;;;;;;;;;;12274042;19;19987;-65
2022/08/14 03:36:16;;;;;;;0.00;0.00;;;;;;;;;;12276964;19;20201;-65
2022/08/14 03:40:16;;;;;;;0.00;0.00;;;;;;;;;;12276553;19;19998;-64
2022/08/14 03:44:18;;;;;;;0.00;0.00;;;;;;;;;;12275234;19;20046;-65
2022/08/14 03:48:18;;;;;;;0.00;0.00;;;;;;;;;;12276170;19;20004;-64
2022/08/14 03:52:19;;;;;;;0.00;0.00;;;;;;;;;;12272988;19;19979;-64
2022/08/14 03:56:19;;;;;;;0.00;0.00;;;;;;;;;;12275762;19;20192;-64
2022/08/14 04:00:20;;;;;;;0.00;0.00;;;;;;;;;;12274804;19;20199;-65
2022/08/14 04:04:20;;;;;;;0.00;0.00;;;;;;;;;;12275324;19;19979;-64
2022/08/14 04:08:21;;;;;;;0.00;0.00;;;;;;;;;;12275044;19;20117;-64
2022/08/14 04:12:21;;;;;;;0.00;0.00;;;;;;;;;;12272040;19;19986;-64
2022/08/14 04:16:22;;;;;;;0.00;0.00;;;;;;;;;;12274589;19;19983;-63
2022/08/14 04:20:23;;;;;;;0.00;0.00;;;;;;;;;;12274949;19;19983;-64
2022/08/14 04:24:23;;;;;;;0.00;0.00;;;;;;;;;;12272848;19;20002;-63
2022/08/14 04:28:25;;;;;;;0.00;0.00;;;;;;;;;;12274521;19;19983;-64
2022/08/14 04:32:25;;;;;;;0.00;0.00;;;;;;;;;;12271271;19;19987;-63
2022/08/14 04:36:26;;;;;;;0.00;0.00;;;;;;;;;;12274256;19;20218;-65
2022/08/14 04:44:45;;;;;;;0.00;0.00;;;;;;;;;;12271959;19;20049;-65
2022/08/14 04:48:47;;;;;;;0.00;0.00;;;;;;;;;;12272907;19;19991;-64
2022/08/14 04:52:48;;;;;;;0.00;0.00;;;;;;;;;;12270151;19;20019;-65
2022/08/14 04:56:48;;;;;;;0.00;0.00;;;;;;;;;;12272074;19;19991;-63
2022/08/14 05:00:50;;;;;;;0.00;0.00;;;;;;;;;;12272218;19;19991;-64
2022/08/14 05:04:50;;;;;;;0.00;0.00;;;;;;;;;;12272926;19;19986;-64
2022/08/14 05:08:52;;;;;;;0.00;0.00;;;;;;;;;;12272158;19;20219;-65
2022/08/14 05:12:52;;;;;;;0.00;0.00;;;;;;;;;;12265163;19;20014;-64
2022/08/14 05:16:56;;;;;;;0.00;0.00;;;;;;;;;;12273718;19;20078;-64
2022/08/14 05:20:59;;;;;;;0.00;0.00;;;;;;;;;;12271496;19;20054;-64
2022/08/14 05:25:01;;;;;;;0.00;0.00;;;;;;;;;;12268819;19;20010;-64
2022/08/14 05:29:03;;;;;;;0.00;0.00;;;;;;;;;;12270966;19;19995;-65
2022/08/14 05:33:05;;;;;;;0.00;0.00;;;;;;;;;;12268541;19;20108;-65
2022/08/14 05:37:06;;;;;;;0.00;0.00;;;;;;;;;;12270893;19;20210;-64
2022/08/14 05:41:11;;;;;;;0.00;0.00;;;;;;;;;;12270354;19;19986;-64
2022/08/14 05:45:13;;;;;;;0.00;0.00;;;;;;;;;;12274894;19;20011;-65
2022/08/14 05:49:16;;;;;;;0.00;0.00;;;;;;;;;;12269773;19;20001;-65
2022/08/14 05:53:17;;;;;;;0.00;0.00;;;;;;;;;;12270338;19;19987;-65
2022/08/14 05:57:17;;;;;;;0.00;0.00;;;;;;;;;;12270572;19;20003;-64
2022/08/14 06:01:18;;;;;;;0.00;0.00;;;;;;;;;;12269597;19;19989;-64
2022/08/14 06:05:18;;;;;;;0.00;0.00;;;;;;;;;;12269279;19;19986;-65
2022/08/14 06:09:19;;;;;;;0.00;0.00;;;;;;;;;;12270460;19;19999;-64
2022/08/14 06:13:20;;;;;;;0.00;0.00;;;;;;;;;;12272940;19;20006;-65
2022/08/14 06:17:20;;;;;;;0.00;0.00;;;;;;;;;;12268851;19;19991;-64
2022/08/14 06:21:21;;;;;;;0.00;0.00;;;;;;;;;;12268810;19;19987;-65
2022/08/14 06:25:22;;;;;;;0.00;0.00;;;;;;;;;;12278633;19;19991;-65
2022/08/14 06:29:22;;;;;;;0.00;0.00;;;;;;;;;;12286820;19;20036;-65
2022/08/14 06:33:23;;;;;;;0.00;0.00;;;;;;;;;;12280532;19;19994;-66
2022/08/14 06:37:24;;;;;;;0.00;0.00;;;;;;;;;;12280473;19;20145;-64
2022/08/14 06:41:24;;;;;;;0.00;0.00;;;;;;;;;;12281831;19;20007;-65
2022/08/14 06:45:25;;;;;;;0.00;0.00;;;;;;;;;;12277144;19;19992;-65
2022/08/14 06:49:26;;;;;;;0.00;0.00;;;;;;;;;;12279273;19;20012;-65
2022/08/14 06:53:26;;;;;;;0.00;0.00;;;;;;;;;;12279789;19;20215;-65
2022/08/14 06:57:36;;;;;;;0.00;0.00;;;;;;;;;;12282513;19;20249;-64
2022/08/14 07:05:55;;;;;;;0.00;0.00;;;;;;;;;;12278584;19;19997;-65
2022/08/14 07:09:56;;;;;;;0.00;0.00;;;;;;;;;;12277102;19;19991;-67
2022/08/14 07:13:57;;;;;;;0.00;0.00;;;;;;;;;;12286066;19;20042;-65
2022/08/14 07:17:58;;;;;;;0.00;0.00;;;;;;;;;;12277881;19;19979;-66
2022/08/14 07:21:59;;;;;;;0.00;0.00;;;;;;;;;;12277746;19;19993;-65
2022/08/14 07:26:03;;;;;;;0.00;0.00;;;;;;;;;;12277016;19;20002;-65
2022/08/14 07:30:04;;;;;;;0.00;0.00;;;;;;;;;;12276379;19;19987;-65
2022/08/14 07:34:05;;;;;;;0.00;0.00;;;;;;;;;;12275653;19;19983;-65
2022/08/14 07:38:06;;;;;;;0.00;0.00;;;;;;;;;;12277147;19;19986;-66
2022/08/14 07:42:07;;;;;;;0.00;0.00;;;;;;;;;;12281304;19;20007;-67
2022/08/14 07:46:07;;;;;;;0.00;0.00;;;;;;;;;;12273545;19;19983;-66
2022/08/14 07:50:17;;;;;;;0.00;0.00;;;;;;;;;;12275593;19;20003;-65
2022/08/14 07:54:17;;;;;;;0.00;0.00;;;;;;;;;;12276171;19;19975;-66
2022/08/14 07:58:18;;;;;;;0.00;0.00;;;;;;;;;;12282517;19;20011;-65
2022/08/14 08:02:20;;;;;;;0.00;0.00;;;;;;;;;;12276174;19;19975;-64
2022/08/14 08:06:21;;;;;;;;;;;;;;;;;;12275708;19;20030;-65
2022/08/14 08:10:30;;;;;;;0.00;0.00;;;;;;;;;;12274955;19;19930;-65
2022/08/14 08:14:34;;;;;;;0.00;0.00;;;;;;;;;;12275155;19;19987;-67
2022/08/14 08:18:34;;;;;;;0.00;0.00;;;;;;;;;;12274799;19;20088;-66
2022/08/14 08:22:36;;;;;;;0.00;0.00;;;;;;;;;;12274964;19;20101;-65
2022/08/14 08:26:37;;;;;;;0.00;0.00;;;;;;;;;;12273683;19;19998;-65
2022/08/14 08:30:46;;;;;;;0.00;0.00;;;;;;;;;;12273367;19;19994;-67
2022/08/14 08:34:47;;;;;;;0.00;0.00;;;;;;;;;;12273982;19;19987;-66
2022/08/14 08:38:48;;;;;;;0.00;0.00;;;;;;;;;;12273355;19;19997;-64
2022/08/14 08:42:49;;;;;;;0.00;0.00;;;;;;;;;;12279786;19;19998;-65
2022/08/14 08:46:56;;;;;;;0.00;0.00;;;;;;;;;;12266993;19;19993;-65
2022/08/14 08:50:59;;;;;;;0.00;0.00;;;;;;;;;;12272155;19;19990;-66
2022/08/14 08:55:00;;;;;;;0.00;0.00;;;;;;;;;;12273176;19;20006;-66
2022/08/14 08:59:01;;;;;;;0.00;0.00;;;;;;;;;;12272585;19;20018;-65
2022/08/14 09:03:05;;;;;;;0.00;0.00;;;;;;;;;;12272321;19;19983;-65
2022/08/14 09:07:06;;;;;;;0.00;0.00;;;;;;;;;;12272192;19;19987;-66
2022/08/14 09:11:11;;;;;;;0.00;0.00;;;;;;;;;;12274346;19;20003;-66
2022/08/14 09:15:11;;;;;;;0.00;0.00;;;;;;;;;;12271701;19;20270;-65
2022/08/14 09:19:12;;;;;;;0.00;0.00;;;;;;;;;;12271350;19;20015;-65
2022/08/14 09:23:13;;;;;;;0.00;0.00;;;;;;;;;;12270939;19;20195;-65
2022/08/14 09:27:14;;;;;;;0.00;0.00;;;;;;;;;;12278827;19;20014;-66
2022/08/14 09:31:16;;;;;;;0.00;0.00;;;;;;;;;;12270256;19;19983;-66
2022/08/14 09:35:27;;;;;;;0.00;0.00;;;;;;;;;;12270808;19;20119;-65
2022/08/14 09:39:36;;;;;;;0.00;0.00;;;;;;;;;;12271304;19;19998;-65
2022/08/14 09:43:50;;;;;;;0.00;0.00;;;;;;;;;;12277773;19;20242;-65
2022/08/14 09:47:52;;;;;;;0.00;0.00;;;;;;;;;;12270284;19;20110;-66
2022/08/14 09:52:04;;;;;;;0.00;0.00;;;;;;;;;;12267938;19;19987;-66
2022/08/14 09:56:05;;;;;;;0.00;0.00;;;;;;;;;;12273592;19;20223;-66
2022/08/14 10:00:13;;;;;;;0.00;0.00;;;;;;;;;;12282527;19;20184;-65
2022/08/14 10:04:27;;;;;;;0.00;0.00;;;;;;;;;;12282189;19;19989;-66
2022/08/14 10:08:46;;;;;;;0.00;0.00;;;;;;;;;;12281905;19;20058;-64
2022/08/14 10:12:47;;;;;;;0.00;0.00;;;;;;;;;;12284197;19;20121;-66
2022/08/14 10:16:51;;;;;;;0.00;0.00;;;;;;;;;;12281585;19;20212;-66
2022/08/14 10:21:00;;;;;;;0.00;0.00;;;;;;;;;;12281120;19;19991;-66
2022/08/14 10:25:13;;;;;;;0.00;0.00;;;;;;;;;;12278137;19;20032;-66
2022/08/14 10:29:16;;;;;;;0.00;0.00;;;;;;;;;;12283703;19;20065;-65
2022/08/14 10:33:31;;;;;;;0.00;0.00;;;;;;;;;;12275935;19;19987;-66
2022/08/14 10:37:37;;;;;;;0.00;0.00;;;;;;;;;;12278528;19;19983;-66
2022/08/14 10:41:41;;;;;;;0.00;0.00;;;;;;;;;;12279867;19;20006;-65
2022/08/14 10:45:53;;;;;;;0.00;0.00;;;;;;;;;;12284026;19;20239;-65
2022/08/14 10:49:58;;;;;;;0.00;0.00;;;;;;;;;;12279002;19;20031;-66
2022/08/14 10:54:06;;;;;;;0.00;0.00;;;;;;;;;;12279501;19;19979;-66
2022/08/14 10:58:10;;;;;;;0.00;0.00;;;;;;;;;;12283200;19;20006;-65
2022/08/14 11:02:29;;;;;;;0.00;0.00;;;;;;;;;;12278978;19;19987;-65
2022/08/14 11:06:32;;;;;;;0.00;0.00;;;;;;;;;;12278704;19;19998;-65
2022/08/14 11:10:46;;;;;;;0.00;0.00;;;;;;;;;;12274920;19;20008;-65
2022/08/14 11:14:56;;;;;;;0.00;0.00;;;;;;;;;;12283000;19;19995;-66
2022/08/14 11:18:56;;;;;;;0.00;0.00;;;;;;;;;;12277957;19;19993;-65
2022/08/14 11:22:59;;;;;;;0.00;0.00;;;;;;;;;;12277874;19;19983;-65
2022/08/14 11:27:01;;;;;;;0.00;0.00;;;;;;;;;;12275584;19;20028;-66
2022/08/14 11:31:03;;;;;;;0.00;0.00;;;;;;;;;;12275655;19;19987;-66
2022/08/14 11:35:04;;;;;;;0.00;0.00;;;;;;;;;;12276790;19;20222;-66
2022/08/14 11:39:05;;;;;;;0.00;0.00;;;;;;;;;;12277404;19;20199;-66
2022/08/14 11:43:07;;;;;;;0.00;0.00;;;;;;;;;;12279728;19;20131;-65
2022/08/14 11:47:18;;;;;;;0.00;0.00;;;;;;;;;;12276973;19;19986;-65
2022/08/14 11:51:24;;;;;;;0.00;0.00;;;;;;;;;;12274619;19;20120;-66
2022/08/14 11:55:25;;;;;;;0.00;0.00;;;;;;;;;;12276109;19;20133;-65
2022/08/14 11:59:28;;;;;;;0.00;0.00;;;;;;;;;;12283425;19;20119;-65
2022/08/14 12:03:43;;;;;;;0.00;0.00;;;;;;;;;;12275855;19;19983;-65
2022/08/14 12:07:49;;;;;;;0.00;0.00;;;;;;;;;;12275512;19;19987;-65
2022/08/14 12:11:53;;;;;;;0.00;0.00;;;;;;;;;;12275203;19;20020;-65
2022/08/14 12:16:06;;;;;;;0.00;0.00;;;;;;;;;;12274754;19;19986;-65
2022/08/14 12:20:07;;;;;;;0.00;0.00;;;;;;;;;;12273383;19;20211;-65
2022/08/14 12:24:09;;;;;;;0.00;0.00;;;;;;;;;;12273486;19;20006;-63
2022/08/14 12:28:10;;;;;;;0.00;0.00;;;;;;;;;;12278702;19;20118;-64
2022/08/14 12:32:16;;;;;;;0.00;0.00;;;;;;;;;;12271529;19;20010;-63
2022/08/14 12:36:20;;;;;;;0.00;0.00;;;;;;;;;;12278136;19;20015;-60
2022/08/14 12:40:23;;;;;;;0.00;0.00;;;;;;;;;;12273483;19;19991;-61
2022/08/14 12:44:32;;;;;;;0.00;0.00;;;;;;;;;;12277086;19;20123;-62
2022/08/14 12:48:45;;;;;;;0.00;0.00;;;;;;;;;;12280613;19;20010;-62
2022/08/14 12:52:46;;;;;;;0.00;0.00;;;;;;;;;;12275007;19;20026;-63
2022/08/14 12:56:47;;;;;;;0.00;0.00;;;;;;;;;;12276455;19;20006;-59
2022/08/14 13:00:51;;;;;;;0.00;0.00;;;;;;;;;;12272506;19;20026;-63
2022/08/14 13:04:56;;;;;;;0.00;0.00;;;;;;;;;;12274096;19;20018;-64
2022/08/14 13:08:57;;;;;;;0.00;0.00;;;;;;;;;;12272384;19;20103;-64
2022/08/14 13:12:58;;;;;;;0.00;0.00;;;;;;;;;;12275828;19;20238;-62
2022/08/14 13:17:02;;;;;;;0.00;0.00;;;;;;;;;;12271573;19;19983;-61
2022/08/14 13:21:04;;;;;;;0.00;0.00;;;;;;;;;;12272892;19;20007;-61
2022/08/14 13:25:05;;;;;;;;;;;;;;;;;;12270850;19;20013;-62
2022/08/14 13:29:05;;;;;;;0.00;0.00;;;;;;;;;;12275717;19;19910;-63
2022/08/14 13:33:06;;;;;;;0.00;0.00;;;;;;;;;;12266888;19;20079;-61
2022/08/14 13:37:07;;;;;;;0.00;0.00;;;;;;;;;;12270708;19;19995;-59
2022/08/14 13:41:09;;;;;;;0.00;0.00;;;;;;;;;;12270630;19;20006;-62
2022/08/14 13:45:10;;;;;;;;;;;;;;;;;;12274089;19;20003;-60
2022/08/14 13:49:12;;;;;;;0.00;0.00;;;;;;;;;;12271536;19;19971;-63
2022/08/14 13:53:14;;;;;;;0.00;0.00;;;;;;;;;;12270955;19;20256;-64
2022/08/14 13:57:19;;;;;;;0.00;0.00;;;;;;;;;;12267675;19;19991;-63
2022/08/14 14:01:20;;;;;;;0.00;0.00;;;;;;;;;;12270401;19;19999;-64
2022/08/14 14:05:22;;;;;;;0.00;0.00;;;;;;;;;;12249424;19;20214;-61
2022/08/14 14:09:27;;;;;;;0.00;0.00;;;;;;;;;;12275120;19;19979;-63
2022/08/14 14:13:30;;;;;;;0.00;0.00;;;;;;;;;;12279481;19;20070;-63
2022/08/14 14:21:42;;;;;;;0.00;0.00;;;;;;;;;;12105516;19;20243;-58
2022/08/14 14:25:44;;;;;;;0.00;0.00;;;;;;;;;;12266899;19;20238;-58
2022/08/14 14:29:50;;;;;;;0.00;0.00;;;;;;;;;;12272626;19;20012;-63
2022/08/14 14:33:54;;;;;;;0.00;0.00;;;;;;;;;;12277675;19;20021;-65
2022/08/14 14:37:55;;;;;;;0.00;0.00;;;;;;;;;;12255284;19;20007;-66
2022/08/14 14:41:58;;;;;;;0.00;0.00;;;;;;;;;;12270459;19;20002;-69
2022/08/14 14:45:59;;;;;;;0.00;0.00;;;;;;;;;;12288291;19;20066;-58
2022/08/14 14:50:03;;;;;;;0.00;0.00;;;;;;;;;;12282417;19;20074;-62
2022/08/14 14:54:05;;;;;;;0.00;0.00;;;;;;;;;;12285666;19;20017;-64
2022/08/14 14:58:07;;;;;;;;;;;;;;;;;;12282315;19;20003;-64
2022/08/14 15:02:16;;;;;;;0.00;0.00;;;;;;;;;;12279627;19;19928;-65
2022/08/14 15:06:16;;;;;;;0.00;0.00;;;;;;;;;;12286426;19;19995;-63
2022/08/14 15:10:19;;;;;;;0.00;0.00;;;;;;;;;;12282658;19;20010;-64
2022/08/14 15:14:22;;;;;;;;;;;;;;;;;;12281045;19;20024;-63
2022/08/14 15:18:25;;;;;;;0.00;0.00;;;;;;;;;;12284034;19;19926;-65
2022/08/14 15:22:27;;;;;;;0.00;0.00;;;;;;;;;;12282545;19;20003;-64
2022/08/14 15:26:28;;;;;;;0.00;0.00;;;;;;;;;;12285250;19;20014;-65
2022/08/14 15:30:28;;;;;;;0.00;0.00;;;;;;;;;;12285597;19;20011;-60
2022/08/14 15:34:29;;;;;;;0.00;0.00;;;;;;;;;;12285896;19;20003;-64
2022/08/14 15:38:30;;;;;;;0.00;0.00;;;;;;;;;;12279374;19;20002;-63
2022/08/14 15:42:31;;;;;;;0.00;0.00;;;;;;;;;;12278544;19;20055;-63
2022/08/14 15:46:33;;;;;;;0.00;0.00;;;;;;;;;;12280882;19;20002;-59
2022/08/14 15:50:33;;;;;;;0.00;0.00;;;;;;;;;;12283813;19;20013;-64
2022/08/14 15:54:34;;;;;;;0.00;0.00;;;;;;;;;;12284229;19;20031;-59
2022/08/14 15:58:35;;;;;;;0.00;0.00;;;;;;;;;;12288157;19;20003;-61
2022/08/14 16:02:35;;;;;;;0.00;0.00;;;;;;;;;;12286768;19;20002;-64
2022/08/14 16:06:36;;;;;;;0.00;0.00;;;;;;;;;;12279342;19;20009;-60
2022/08/14 16:10:39;;;;;;;0.00;0.00;;;;;;;;;;12276632;19;20037;-65
2022/08/14 16:14:39;;;;;;;0.00;0.00;;;;;;;;;;12285146;19;20032;-64
2022/08/14 16:18:40;;;;;;;0.00;0.00;;;;;;;;;;12279619;19;20046;-64
2022/08/14 16:22:40;;;;;;;0.00;0.00;;;;;;;;;;12287538;19;20023;-59
2022/08/14 16:26:41;;;;;;;0.00;0.00;;;;;;;;;;12288119;19;19994;-58
2022/08/14 16:30:47;;;;;;;0.00;0.00;;;;;;;;;;12281445;19;20027;-59
2022/08/14 16:34:48;;;;;;;0.00;0.00;;;;;;;;;;12281327;19;20083;-63
2022/08/14 16:38:54;;;;;;;0.00;0.00;;;;;;;;;;12279456;19;20012;-60
2022/08/14 16:42:57;;;;;;;0.00;0.00;;;;;;;;;;12278772;19;19986;-61
2022/08/14 16:47:00;;;;;;;0.00;0.00;;;;;;;;;;12279164;19;20001;-67
2022/08/14 16:51:01;;;;;;;0.00;0.00;;;;;;;;;;12281119;19;20015;-59
2022/08/14 16:55:04;;;;;;;0.00;0.00;;;;;;;;;;12279626;19;20011;-64
2022/08/14 16:59:14;;;;;;;0.00;0.00;;;;;;;;;;12276416;19;20023;-59
2022/08/14 17:03:14;;;;;;;0.00;0.00;;;;;;;;;;12280211;19;20166;-61
2022/08/14 17:07:15;;;;;;;0.00;0.00;;;;;;;;;;12273456;19;20165;-61
2022/08/14 17:11:15;;;;;;;0.00;0.00;;;;;;;;;;12278738;19;20005;-62
2022/08/14 17:15:16;;;;;;;0.00;0.00;;;;;;;;;;12275380;19;20017;-61
2022/08/14 17:19:16;;;;;;;0.00;0.00;;;;;;;;;;12279253;19;20002;-60
2022/08/14 17:23:17;;;;;;;0.00;0.00;;;;;;;;;;12275281;19;20011;-62
2022/08/14 17:27:21;;;;;;;0.00;0.00;;;;;;;;;;12274379;19;20238;-60
2022/08/14 17:31:30;;;;;;;0.00;0.00;;;;;;;;;;12274524;19;20044;-62
2022/08/14 17:35:32;;;;;;;0.00;0.00;;;;;;;;;;12275627;19;20042;-62
2022/08/14 17:39:34;;;;;;;0.00;0.00;;;;;;;;;;12273326;19;20059;-59
2022/08/14 17:43:34;;;;;;;0.00;0.00;;;;;;;;;;12276346;19;20014;-63
2022/08/14 17:47:35;;;;;;;0.00;0.00;;;;;;;;;;12274414;19;20023;-61
2022/08/14 17:52:11;;;;;;;0.00;0.00;;;;;;;;;;12277708;19;20001;-59
2022/08/14 17:56:11;;;;;;;0.00;0.00;;;;;;;;;;12268548;19;20151;-62
2022/08/14 18:00:15;;;;;;;0.00;0.00;;;;;;;;;;12275096;19;20119;-60
2022/08/14 18:04:17;;;;;;;0.00;0.00;;;;;;;;;;12272916;19;20007;-59
2022/08/14 18:08:18;;;;;;;0.00;0.00;;;;;;;;;;12272404;19;19999;-58
2022/08/14 18:12:21;;;;;;;0.00;0.00;;;;;;;;;;12271179;19;19998;-63
2022/08/14 18:16:21;;;;;;;;;;;;;;;;;;12276711;19;20039;-64
2022/08/14 18:20:24;;;;;;;0.00;0.00;;;;;;;;;;12284061;19;19978;-63
2022/08/14 18:24:26;;;;;;;0.00;0.00;;;;;;;;;;12280081;19;20006;-62
2022/08/14 18:28:31;;;;;;;0.00;0.00;;;;;;;;;;12288453;19;19994;-59
2022/08/14 18:32:31;;;;;;;0.00;0.00;;;;;;;;;;12284951;19;20127;-59
2022/08/14 18:36:49;;;;;;;0.00;0.00;;;;;;;;;;12285939;19;20237;-60
2022/08/14 18:41:14;;;;;;;0.00;0.00;;;;;;;;;;12284590;19;20078;-61
2022/08/14 18:45:27;;;;;;;0.00;0.00;;;;;;;;;;12287718;19;19998;-62
2022/08/14 18:49:28;;;;;;;0.00;0.00;;;;;;;;;;12285953;19;19999;-60
2022/08/14 18:53:30;;;;;;;0.00;0.00;;;;;;;;;;12276750;19;20054;-62
2022/08/14 18:57:53;;;;;;;0.00;0.00;;;;;;;;;;12286044;19;20002;-59
2022/08/14 19:01:54;;;;;;;0.00;0.00;;;;;;;;;;12280313;19;20025;-62
2022/08/14 19:05:54;;;;;;;0.00;0.00;;;;;;;;;;12283624;19;20002;-62
2022/08/14 19:09:55;;;;;;;0.00;0.00;;;;;;;;;;12276456;19;20129;-63
2022/08/14 19:13:56;;;;;;;0.00;0.00;;;;;;;;;;12278223;19;20202;-61
2022/08/14 19:17:57;;;;;;;0.00;0.00;;;;;;;;;;12283331;19;20044;-59
2022/08/14 19:22:00;;;;;;;0.00;0.00;;;;;;;;;;12280822;19;20005;-62
2022/08/14 19:26:04;;;;;;;0.00;0.00;;;;;;;;;;12282827;19;20007;-61
2022/08/14 19:30:16;;;;;;;0.00;0.00;;;;;;;;;;12273766;19;20206;-62
2022/08/14 19:34:43;;;;;;;0.00;0.00;;;;;;;;;;12280198;19;20006;-60
2022/08/14 19:38:44;;;;;;;0.00;0.00;;;;;;;;;;12283224;19;20009;-61
2022/08/14 19:42:45;;;;;;;0.00;0.00;;;;;;;;;;12279386;19;20144;-63
2022/08/14 19:46:52;;;;;;;0.00;0.00;;;;;;;;;;12277522;19;20195;-62
2022/08/14 19:51:01;;;;;;;0.00;0.00;;;;;;;;;;12276823;19;19998;-63
2022/08/14 19:55:12;;;;;;;0.00;0.00;;;;;;;;;;12276321;19;19994;-63
2022/08/14 19:59:20;;;;;;;0.00;0.00;;;;;;;;;;12277885;19;20013;-63
2022/08/14 20:03:20;;;;;;;0.00;0.00;;;;;;;;;;12281610;19;20019;-61
2022/08/14 20:07:35;;;;;;;0.00;0.00;;;;;;;;;;12279710;19;20015;-61
2022/08/14 20:11:38;;;;;;;0.00;0.00;;;;;;;;;;12275303;19;20078;-60
2022/08/14 20:15:40;;;;;;;0.00;0.00;;;;;;;;;;12276369;19;19987;-62
2022/08/14 20:19:40;;;;;;;0.00;0.00;;;;;;;;;;12279384;19;20002;-63
2022/08/14 20:23:41;;;;;;;0.00;0.00;;;;;;;;;;12279199;19;20027;-61
2022/08/14 20:27:43;;;;;;;0.00;0.00;;;;;;;;;;12278727;19;20014;-62
2022/08/14 20:31:46;;;;;;;0.00;0.00;;;;;;;;;;12274059;19;19994;-59
2022/08/14 20:35:48;;;;;;;0.00;0.00;;;;;;;;;;12276207;19;20014;-62
2022/08/14 20:39:48;;;;;;;0.00;0.00;;;;;;;;;;12278911;19;20022;-61
2022/08/14 20:48:09;;;;;;;0.00;0.00;;;;;;;;;;12275320;19;20010;-62
2022/08/14 20:52:09;;;;;;;0.00;0.00;;;;;;;;;;12276015;19;20007;-62
2022/08/14 20:56:20;;;;;;;0.00;0.00;;;;;;;;;;12274110;19;20146;-60
2022/08/14 21:00:41;;;;;;;0.00;0.00;;;;;;;;;;12270672;19;20011;-61
2022/08/14 21:04:53;;;;;;;0.00;0.00;;;;;;;;;;12274410;19;20030;-61
2022/08/14 21:08:56;;;;;;;0.00;0.00;;;;;;;;;;12276297;19;20031;-61
2022/08/14 21:12:57;;;;;;;0.00;0.00;;;;;;;;;;12271473;19;20002;-63
2022/08/14 21:16:58;;;;;;;0.00;0.00;;;;;;;;;;12272682;19;20057;-62
2022/08/14 21:21:03;;;;;;;0.00;0.00;;;;;;;;;;12273468;19;20229;-64
2022/08/14 21:25:04;;;;;;;0.00;0.00;;;;;;;;;;12266487;19;20209;-63
2022/08/14 21:29:10;;;;;;;0.00;0.00;;;;;;;;;;12275614;19;20003;-62
2022/08/14 21:33:10;;;;;;;0.00;0.00;;;;;;;;;;12273676;19;20014;-60
2022/08/14 21:37:14;;;;;;;0.00;0.00;;;;;;;;;;12270719;19;20017;-60
2022/08/14 21:41:23;;;;;;;0.00;0.00;;;;;;;;;;12275947;19;20034;-62
2022/08/14 21:45:23;;;;;;;0.00;0.00;;;;;;;;;;12272287;19;20171;-66
2022/08/14 21:49:29;;;;;;;0.00;0.00;;;;;;;;;;12277547;19;20147;-59
2022/08/14 21:53:32;;;;;;;0.00;0.00;;;;;;;;;;12274423;19;20011;-65
2022/08/14 21:57:34;;;;;;;0.00;0.00;;;;;;;;;;12284524;19;20019;-62
2022/08/14 22:01:35;;;;;;;0.00;0.00;;;;;;;;;;12282400;19;20037;-62
2022/08/14 22:05:37;;;;;;;0.00;0.00;;;;;;;;;;12290236;19;20011;-65
2022/08/14 22:09:38;;;;;;;;;;;;;;;;;;12285672;19;20206;-63
2022/08/14 22:13:38;;;;;;;0.00;0.00;;;;;;;;;;12281793;19;19947;-64
2022/08/14 22:17:40;;;;;;;0.00;0.00;;;;;;;;;;12287589;19;20033;-59
2022/08/14 22:21:42;;;;;;;0.00;0.00;;;;;;;;;;12282827;19;20191;-63
2022/08/14 22:25:44;;;;;;;0.00;0.00;;;;;;;;;;12287428;19;20214;-61
2022/08/14 22:29:45;;;;;;;0.00;0.00;;;;;;;;;;12286636;19;20007;-62
2022/08/14 22:33:47;;;;;;;0.00;0.00;;;;;;;;;;12286912;19;20133;-63
2022/08/14 22:37:47;;;;;;;0.00;0.00;;;;;;;;;;12280507;19;20136;-65
2022/08/14 22:41:51;;;;;;;0.00;0.00;;;;;;;;;;12286997;19;20227;-64
2022/08/14 22:45:52;;;;;;;0.00;0.00;;;;;;;;;;12287774;19;20082;-61
2022/08/14 22:49:53;;;;;;;0.00;0.00;;;;;;;;;;12284800;19;20057;-61
2022/08/14 22:53:55;;;;;;;0.00;0.00;;;;;;;;;;12281527;19;20011;-62
2022/08/14 22:57:56;;;;;;;0.00;0.00;;;;;;;;;;12282949;19;20002;-62
2022/08/14 23:01:56;;;;;;;0.00;0.00;;;;;;;;;;12281711;19;20005;-60
2022/08/14 23:05:57;;;;;;;0.00;0.00;;;;;;;;;;12283194;19;20014;-61
2022/08/14 23:09:58;;;;;;;0.00;0.00;;;;;;;;;;12280851;19;20176;-60
2022/08/14 23:13:59;;;;;;;0.00;0.00;;;;;;;;;;12281233;19;19995;-61
2022/08/14 23:18:01;;;;;;;0.00;0.00;;;;;;;;;;12285817;19;20014;-61
2022/08/14 23:22:05;;;;;;;0.00;0.00;;;;;;;;;;12279269;19;20006;-60
2022/08/14 23:26:07;;;;;;;0.00;0.00;;;;;;;;;;12285030;19;20268;-61
2022/08/14 23:30:21;;;;;;;0.00;0.00;;;;;;;;;;12285234;19;20007;-61
2022/08/14 23:34:23;;;;;;;0.00;0.00;;;;;;;;;;12280570;19;20002;-60
2022/08/14 23:38:25;;;;;;;0.00;0.00;;;;;;;;;;12283991;19;20057;-61
2022/08/14 23:42:25;;;;;;;0.00;0.00;;;;;;;;;;12285330;19;20020;-62
2022/08/14 23:46:26;;;;;;;0.00;0.00;;;;;;;;;;12280160;19;20057;-59
2022/08/14 23:50:28;;;;;;;0.00;0.00;;;;;;;;;;12277420;19;19991;-60
2022/08/14 23:54:30;;;;;;;0.00;0.00;;;;;;;;;;12285272;19;20031;-59
2022/08/14 23:58:30;;;;;;;0.00;0.00;;;;;;;;;;12279927;19;20006;-60
